COOLWX HOME

EXTREME HOME

OTHER COOLWX PAGES
    Coolwx Hit Images
    Extreme Weather
    Global Forecasts
    Hourly Model Forecasts
    Mesoscale Analysis
    Obs. Weather Database
    Offshore Weather Data
    Precipitation Type
    Record Breakers
    U.S. Weather Statistics


EXTREME WX CATEGORIES
   CITIES & VALUES:
       Temperature
       Dewpoint
       Heat Index
       Wind
       Wind Chill
       Pressure
       Pressure Change
       Precip Type/Intensity
       Precip Amount
       Thunderstorm
       Blizzard
       Visibility
       Astronomical
       Other
       Multiple
       Unknown
   CITIES & FULL REPORTS:
       Temperature
       Dewpoint
       Heat Index
       Wind
       Wind Chill
       Pressure
       Pressure Change
       Precip Type/Intensity
       Precip Amount
       Thunderstorm
       Blizzard
       Visibility
       Astronomical
       Other
       Multiple
   USA & WORLD PLOTS:
       Temperature
       Dewpoint
       Wind
       Wind Chill & Heat Index
       Pressure
       Pressure Change
       Precip Type/Intensity
       Precip Amount
       Thunderstorm
       Blizzard
       Visibility
       Astronomical
       Other
       Unknown
   REPEAT OFFENDERS:
       Today
       Yesterday
       This month
       This year
       Since 2007
   RSS:
       Feed
   ARCHIVE:
       2024061707
       2024061706
       2024061703
       2024061700
       2024061621
       2024061618
       2024061615
       2024061612
       2024061609
       2024061606
       2024061603
       2024061600
       2024061521
       2024061518
       2024061515
       2024061512
       2024061509
       2024061506
       2024061503
       2024061500
       2024061421
       2024061418
       2024061415
       2024061412

CONTACT
       Bob Hart
       (rhart at fsu.edu)

Extreme & Weird Weather of the World - Archive for 2024060900
Currently using 36027 observations from 5190 unique global stations over the past 3 hours.
Last Updated: Sun Jun 9 00:46:33 UTC 2024



1 station reporting temperature -55°C or colder

0 stations reporting temperature -50°C to -54°C

0 stations reporting temperature -45°C to -49°C

0 stations reporting temperature -40°C to -44°C

0 stations reporting temperature 55°C or warmer

0 stations reporting temperature 50°C to 54°C

0 stations reporting temperature 45°C to 49°C

47 stations reporting temperature 40°C to 44°C


4 stations reporting dewpoint 30°C or greater

22 stations reporting dewpoint 28-29°C

194 stations reporting dewpoint 26-27°C


1 station reporting wind gusts 70kt or stronger

1 station reporting wind gusts 60-69kt

5 stations reporting wind gusts 50-59kt

25 stations reporting wind gusts 40-49kt


2 stations reporting (sustained) wind chill of -55°C or colder

0 stations reporting (sustained) wind chill of -50°C to -54°C

0 stations reporting (sustained) wind chill of -45°C to -49°C

0 stations reporting (sustained) wind chill of -40°C to -44°C


1 station reporting heat index of 55°C or hotter

3 stations reporting heat index of 50°C to 54°C

11 stations reporting heat index of 45°C to 49°C

146 stations reporting heat index of 40°C to 44°C


0 stations reporting sea level pressure < 950mb

0 stations reporting sea level pressure 950mb - 959mb

0 stations reporting sea level pressure 960mb - 969mb

2 stations reporting sea level pressure 970mb - 979mb

  • NZCM: Williams Field, Antarctica [973.2mb, 28.73in]    
    NZCM 082356Z AUTO 14026G32KT 4300 BLSN BR OVC055 M16/M20 A2872 RMK AO2 PK WND 14032/2355 SLP732 T11591204 $
    NZCM 082355Z AUTO 15025G31KT 4300 HZ OVC055 M16/M20 A2873 RMK AO2 PK WND 14035/2257 SNB2325E2326B2344E2345 SLP733 T11591204 11159 21175 57006 $
    NZCM 082354Z AUTO 14023G31KT 4300 HZ OVC055 M16/M20 A2873 RMK AO2 PK WND 14035/2257 SNB2325E2326B2344E2345 SLP736 T11601204 $
    NZCM 082353Z AUTO 14024G32KT 4300 BLSN BR OVC055 M16/M20 A2873 RMK AO2 PK WND 14035/2257 SNB2325E2326B2344E2345 SLP736 T11601204 $
    NZCM 082345Z AUTO 14025G32KT 4400 HZ OVC055 M16/M20 A2873 RMK AO2 PK WND 14035/2257 SNB2325E2326B2344E2345 SLP735 T11591201 $
    NZCM 082344Z AUTO 14026G32KT 4400 -SN BR OVC055 M16/M20 A2873 RMK AO2 PK WND 14035/2257 SNB2325E2326B2344 SLP735 T11591201 $
    NZCM 082342Z AUTO 15025G32KT 4400 HZ OVC055 M16/M20 A2873 RMK AO2 PK WND 14035/2257 SNB2325E2326 SLP734 T11591201 $
    NZCM 082325Z AUTO 14028G32KT 4200 -SN BR OVC060 M16/M20 A2873 RMK AO2 PK WND 14035/2257 SNB2325 SLP737 T11611197 $
    NZCM 082317Z AUTO 14025G32KT 4100 HZ OVC060 M16/M20 A2874 RMK AO2 PK WND 14035/2257 SLP738 T11621196 $
    NZCM 082255Z AUTO 14027G35KT 4000 BLSN BR OVC055 M16/M20 A2874 RMK AO2 PK WND 16039/2223 SNB2225E2226B2252E2253 SLP739 T11621195 $
    NZCM 082252Z AUTO 14029G35KT 4100 -SN BR OVC050 M16/M19 A2874 RMK AO2 PK WND 16039/2223 SNB2225E2226B2252 SLP738 T11621195 $
    NZCM 082251Z AUTO 14030G35KT 4100 HZ OVC050 M16/M20 A2874 RMK AO2 PK WND 16039/2223 SNB2225E2226 SLP737 T11621195 $
    NZCM 082225Z AUTO 14030G39KT 4200 -SN BR OVC050 M17/M20 A2874 RMK AO2 PK WND 16039/2223 SNB2225 SLP738 T11651198 $
    NZCM 082221Z AUTO 15028G39KT 3900 HZ OVC050 M16/M20 A2874 RMK AO2 PK WND 13039/2217 SLP739 T11651197 $
    NZCM 082155Z AUTO 15033G42KT 3400 BLSN BR OVC050 M17/M20 A2873 RMK AO2 PK WND 12043/2134 SLP735 T11681200 $
    NZCM 082055Z AUTO 14027G38KT 7000 BLSN OVC035 M16/M20 A2874 RMK AO2 PK WND 17046/2024 SLP740 T11641198 55003 $
  • PFTO: UNKNOWN, [977.5mb, 28.86in]    
    PFTO 082356Z AUTO 09009G19KT 10SM CLR 23/M02 A2991 RMK AO2 SLP775 T02331022 10239 20183 56021 $
    PFTO 082256Z AUTO 12008G17KT 10SM CLR 23/M02 A2993 RMK AO2 SLP780 T02331022 $
    PFTO 082156Z AUTO 13007G14KT 080V170 10SM CLR 23/M03 A2996 RMK AO2 SLP789 T02281033 $
    PFTO 082056Z AUTO 14010G17KT 10SM CLR 22/M03 A2998 RMK AO2 SLP795 T02221033 56019 $
0 stations reporting sea level pressure 980mb - 989mb

2 stations reporting sea level pressure > 1055mb

  • KCWN: Cheyenne Moutain, CO, United States [1097.0mb, 32.39in]    
    KCWN 082355Z AUTO 34021G28KT 10SM BKN130 BKN150 25/10 A2999 RMK AO2 LTG DSNT NE SLP959 T02530099 10297 20253 55010 $
    KCWN 082255Z AUTO 15014G22KT 10SM CLR 30/01 A2997 RMK AO2 PK WND 17030/18 LTG DSNT NE-E SLP944 T02950010 $
    KCWN 082155Z AUTO 14016G23KT 10SM CLR 29/06 A2998 RMK AO2 PK WND 17028/10 LTG DSNT E SLP953 T02900058 $
    KCWN 082125Z AUTO 19012G21KT 10SM CLR 29/05 A3001 RMK AO2 WSHFT 17 LTG DSNT NE SLP961 $
    KCWN 082055Z AUTO 15014G27KT 10SM CLR 28/07 A3003 RMK AO2 PK WND 15031/16 LTG DSNT NE SLP970 T02800067 55013 $
  • PACX: UNKNOWN, [1082.1mb, 31.95in]    
    PACX 082356Z AUTO 06009G16KT 10SM FEW085 23/01 A3004 RMK AO2 SLP798 T02280011 10228 20156 58023
    PACX 082256Z AUTO 10010KT 10SM SCT080 22/02 A3007 RMK AO2 SLP807 T02220017
    PACX 082156Z AUTO 10010KT 10SM FEW085 22/01 A3009 RMK AO2 SLP814 T02220011
    PACX 082056Z AUTO 09010KT 10SM FEW070 21/03 A3011 RMK AO2 SLP821 T02110033 58018
0 stations reporting sea level pressure 1050-1054mb

0 stations reporting sea level pressure 1045-1049mb

2 stations reporting sea level pressure 1040-1044mb

  • FDMY: Mayiwane, Swaziland [1044mb, 30.82in]    
    FDMY 082300Z AUTO 00000KT //// // ////// 11/08 Q1044
    FDMY 082200Z AUTO 31001KT //// // ////// 11/09 Q1044
  • SLLP: La Paz / Alto, Bolivia [1041mb, 30.73in]    
    SLLP 090000Z 01005KT 9999 NSC 07/M15 Q1041
    SLLP 082300Z 30004KT 9999 NSC 10/M14 Q1040
    SLLP 082200Z 29009KT 9999 NSC 11/M12 Q1040
    SLLP 082100Z 28009KT 9999 NSC 14/M10 Q1040
11 stations reporting sea level pressure 1035-1039mb

  • FAKN: Kruger Mpumalanga, South Africa [1035mb, 30.56in]    
    FAKN 090000Z AUTO 26001KT //// // ////// 10/07 Q1035
    FAKN 082300Z AUTO 30001KT //// // ////// 10/07 Q1035
    FAKN 082200Z AUTO 27001KT //// // ////// 11/07 Q1035
    FAKN 082100Z AUTO 31002KT //// // ////// 11/07 Q1035
  • FALA: Lanseria Civ / Mil, South Africa [1035mb, 30.56in]    
    FALA 082300Z AUTO 11003KT //// ///////// 06/01 Q1035 NOSIG
    FALA 082200Z AUTO VRB02KT //// ///////// 06/01 Q1035 NOSIG
    FALA 082100Z AUTO 12004KT //// ///////// 07/01 Q1035 NOSIG
  • FAOR: Johannesburg/tam, South Africa [1035mb, 30.56in]    
    FAOR 082200Z 07005KT CAVOK 03/01 Q1035 NOSIG
    FAOR 082100Z 06007KT 020V090 CAVOK 04/01 Q1035 NOSIG
  • FAPP: Polokwane Intl, South Africa [1036mb, 30.59in]    
    FAPP 090000Z AUTO 12002KT //// // ////// 05/03 Q1035
    FAPP 082200Z AUTO 06002KT //// // ////// 06/04 Q1035
    FAPP 082100Z AUTO 04003KT //// // ////// 07/04 Q1036
  • FASI: Springs, South Africa [1038mb, 30.65in]    
    FASI 082200Z AUTO 14002KT //// // ////// 03/01 Q1038
    FASI 082100Z AUTO 14002KT //// // ////// 03/01 Q1038
  • FAVV: Vereeniging, South Africa [1036mb, 30.59in]    
    FAVV 082200Z AUTO 03005KT //// // ////// 05/02 Q1036
    FAVV 082100Z AUTO 03013KT //// // ////// 06/02 Q1035
  • FAWK: Waterkloof Lmb, South Africa [1035mb, 30.56in]    
    FAWK 090000Z AUTO 11003KT //// // ////// 04/01 Q1035
    FAWK 082300Z AUTO 12004KT //// // ////// 05/01 Q1035
    FAWK 082200Z AUTO 13006KT //// // ////// 06/02 Q1035
    FAWK 082100Z AUTO 12008KT //// // ////// 07/02 Q1035
  • FDOT: Moti, Swaziland [1035mb, 30.56in]    
    FDOT 082200Z AUTO 00000KT //// // ////// 13/11 Q1035
  • FDPP: Piggs Peak, Swaziland [1036mb, 30.59in]    
    FDPP 082300Z AUTO 29004KT //// // ////// 09/07 Q1036
    FDPP 082200Z AUTO 29005KT //// // ////// 09/08 Q1036
  • SLOR: Oruro, Bolivia [1035mb, 30.56in]    
    SLOR 082300Z 04006KT 9999 NSC 10/M08 Q1035
    SLOR 082200Z 36008KT 9999 NSC 15/M07 Q1035
    SLOR 082100Z 27004KT 9999 NSC 18/M05 Q1035
  • SPJL: Juliaca, Peru [1037mb, 30.62in]    
    SPJL 090000Z 07003KT CAVOK 09/M08 Q1037 RMK PP000
    SPJL 082300Z 12008KT CAVOK 11/M09 Q1037 RMK BIRD HAZARD RWY 12/30 PP000
    SPJL 082200Z VRB02KT CAVOK 16/M20 Q1036 RMK TX18.6 BIRD HAZARD RWY 12/30 PP000
    SPJL 082100Z VRB03KT CAVOK 17/M21 Q1036 RMK BIRD HAZARD RWY 12/30 PP000


1 station reporting 3-hourly pressure fall of 10mb or greater

  • KDYS: Abilene, Dyess AFB, TX, United States [-14.8mb]
    KDYS 082355Z 15021G24KT 10SM CLR 34/17 A2985 RMK AO2A PK WND 14026/00 SLPNO ALSTG DATA ESTMD T03420165 10368 20331 58148
0 stations reporting 3-hourly pressure fall of 5mb to 9.9mb

9 stations reporting 3-hourly pressure rise of 5mb to 9.9mb

  • CAHR: Harrington, PE, Canada [5.1mb]
    CAHR 090000Z AUTO 14006KT 15/14 RMK AO1 1PAST HR 5006 SLP004 P0020 T01460138 50051
  • CWBZ: St Anicet, Canada [7.4mb]
    CWBZ 082100Z AUTO 25008KT 17/15 RMK AO1 7PAST HR 1009 PK WND 24025/2009 SLP032 P0007 T01670150 50066
    CWBZ 082200Z AUTO 24010G15KT 18/15 RMK AO1 0002 SLP026 T01830153 50066
    CWBZ 082300Z AUTO 23007KT 17/16 RMK AO1 3PAST HR 3001 PK WND 24018/2202 SLP032 P0001 T01720155 50069
    CWBZ 090000Z AUTO 25006KT 17/15 RMK AO1 5PAST HR 3003 SLP035 P0002 T01710148 50074
  • CWGD: Goderich, Canada [6.4mb]
    CWGD 082300Z AUTO 30002KT 13/12 RMK AO1 6PAST HR 6010 SLP100 P0006 T01320120 50054
    CWGD 090000Z AUTO 17003KT 13/13 RMK AO1 0PAST HR 6012 SLP095 P0004 T01300128 50064
  • CWIS: Charlevoix CS , Que., Canada [9.2mb]
    CWIS 082100Z AUTO 12001KT 11/10 RMK AO1 2PAST HR 3004 SLP010 P0032 T01060104 50092
  • CWNQ: Nicolet, Canada [5.0mb]
    CWNQ 090000Z AUTO 25012G17KT 18/15 RMK AO1 9PAST HR 3007 PK WND 25024/2339 SLP007 P0004 T01750147 50050
  • CWOC: New Carlisle1, Canada [8.7mb]
    CWOC 090000Z AUTO 04005KT 11/11 RMK AO1 2PAST HR 8022 SLP997 P0024 T01120109 50087
  • CWPD: Parc Des Laurentid, Canada [5.2mb]
    CWPD 090000Z AUTO 23001KT 12/10 RMK AO1 5PAST HR 0002 SLP978 P0014 T01220103 50052
  • CWSD: Summerside, Canada [9.3mb]
    CWSD 082300Z AUTO 17007KT 16/16 RMK AO1 8PAST HR 6011 SLP002 P0030 T01570157 50082
    CWSD 090000Z AUTO 18007KT 15/15 RMK AO1 1PAST HR 8006 SLP998 P0004 T01540154 50093
  • CZCR: Charlo Airport, NB, Canada [5.2mb]
    CZCR 082300Z AUTO 10010G16KT 12/12 RMK AO1 2PAST HR 7014 SLP004 P0001 T01170117 50052
    CZCR 090000Z AUTO 14006KT 12/12 RMK AO1 7013 SLP999 T01200119 50052
1 station reporting 3-hourly pressure rise of 10mb or greater

  • CWIS: Charlevoix CS , Que., Canada [16.7mb]
    CWIS 082200Z AUTO 22002KT 12/12 RMK AO1 4PAST HR 1003 SLP008 P0013 T01190118 50126
    CWIS 082300Z AUTO 03001KT 10/10 RMK AO1 7PAST HR 2005 SLP012 P0007 T01040102 50143
    CWIS 090000Z AUTO 20002KT 11/11 RMK AO1 3PAST HR 0001 SLP010 P0009 T01110110 50167


0 stations reporting heavy snow

0 stations reporting any sleet

0 stations reporting any freezing rain

65 stations reporting heavy rain

  • CYMX: Montreal / Mirabel, Canada
    CYMX 082121Z 29006KT 240V330 3SM +SHRA BKN026TCU BKN050 BKN090 18/16 A2959 RMK TCU6SC1AC1 AC TR SLP023 DENSITY ALT 1100FT
  • CYRQ: Trois Rivieres, Que, Canada
    CYRQ 082124Z AUTO 24004KT 220V290 7SM +RA VCTS FEW034 BKN050 BKN071 OVC083 17/16 A2953 RMK LTNG DIST S PCPN 1.2MM PAST HR SLP004 DENSITY ALT 900FT
  • CYXL: Sioux Lookout, Ont., Canada
    CYXL 082155Z 34011KT 4SM +SHRA FEW035 OVC052 15/10 A2978 RMK SC2CU6 TCU ASOCTD PRESRR SLP097 DENSITY ALT 1800FT
  • CYZR: Sarnia Airport, Canada
    CYZR 082342Z AUTO 03009G15KT 6SM +RA BR 13/13 A2982 RMK PCPN 2.2MM PAST HR CLD MISG SLP100
    CYZR 082346Z AUTO 03010G15KT 5SM +RA BR 13/13 A2982 RMK PCPN 2.5MM PAST HR CLD MISG SLP100
  • ESKM: Siljan / Mora, Sweden
    ESKM 082120Z AUTO 16009KT 8000 +RA SCT007/// BKN009/// OVC014/// 10/10 Q0995
  • ESMV: Hagshult, Sweden
    ESMV 082250Z AUTO 24010KT 9999 +RA VV038 06/06 Q1001
  • ESSV: Visby Flygplats, Sweden
    ESSV 082220Z AUTO 16010KT 8000 +RA ///037/// 12/11 Q1002
  • K57C: East Troy, WI, United States
    K57C 082115Z AUTO 07004KT 4SM +RA SCT007 BKN013 OVC040 14/14 A2983 RMK AO2 P0002 T01350135
  • KBAX: Bad Axe, Huron County Memorial Airport, MI, United States
    KBAX 082115Z AUTO 00000KT 7SM +RA BKN055 OVC085 13/12 A2984 RMK AO2 T01320115
  • KBEH: Benton Harbor, MI, United States
    KBEH 082338Z AUTO 04008KT 360V070 1 1/4SM +RA BR OVC033 16/14 A2978 RMK AO2 RAB05 P0014 T01610139
    KBEH 090012Z AUTO 04005KT 5SM +RA BR SCT011 BKN022 OVC033 16/13 A2980 RMK AO2 P0001 T01560133
  • KCAR: Caribou, Caribou Municipal Airport, ME, United States
    KCAR 082125Z AUTO 22005KT 1 3/4SM +RA BR BKN011 BKN017 OVC021 16/14 A2949 RMK AO2 P0005 T01560139
    KCAR 082128Z AUTO 25006KT 1SM +RA BR SCT009 BKN017 OVC021 16/14 A2949 RMK AO2 P0010 T01560139
    KCAR 082130Z AUTO 25006KT 3/4SM +RA BR SCT007 BKN014 OVC021 16/14 A2949 RMK AO2 P0013 T01560144
    KCAR 082139Z AUTO 33007KT 1/2SM +RA FG FEW005 SCT009 OVC024 16/14 A2949 RMK AO2 P0033 T01560144
    KCAR 082147Z AUTO 36006KT 1 1/4SM +RA BR FEW008 BKN031 OVC046 15/14 A2950 RMK AO2 P0042 T01500139
    KCAR 082154Z AUTO 03007KT 1 3/4SM +RA BR FEW006 BKN035 OVC055 15/14 A2951 RMK AO2 SLP995 P0047 T01500139
    KCAR 082203Z AUTO 36007KT 2SM +RA BR FEW039 OVC049 15/14 A2950 RMK AO2 P0004 T01500139
  • KCFS: Caro/Tuscola, MI, United States
    KCFS 082055Z AUTO 02003KT 5SM +RA SCT025 BKN046 OVC060 14/13 A2985 RMK AO2 T01350134
  • KCLI: Clintonville, WI, United States
    KCLI 090035Z AUTO 01007G22KT 10SM +RA SCT012 BKN055 OVC090 17/11 A2983 RMK AO2 P0003 T01690110
  • KD95: Lapeer, MI, United States
    KD95 090035Z AUTO 03009KT 330V090 5SM +RA SCT006 SCT011 OVC039 13/13 A2981 RMK AO2 P0008 T01310131
  • KEFK: Newport, VT, United States
    KEFK 090015Z AUTO 21005KT 10SM +RA BKN031 OVC038 15/14 A2968 RMK AO2 T01540137
  • KEZS: Shawano, WI, United States
    KEZS 082255Z AUTO 36014G17KT 7SM +RA BKN055 OVC075 19/12 A2979 RMK AO2 P0002 T01870121
  • KFMM: Fort Morgan, CO, United States
    KFMM 082115Z AUTO 10020KT 2 1/2SM +RA HZ FEW012 SCT044 BKN065 25/16 A2989 RMK AO2 LTG DSNT ALQDS
  • KFNT: Flint, Bishop Intl Arpt, MI, United States
    KFNT 090027Z 08005KT 2 1/2SM R09/6000VP6000FT +RA BR BKN005 BKN009 OVC038 14/13 A2980 RMK AO2 P0007 T01390128
    KFNT 090035Z 05003KT 4SM +RA BR BKN005 BKN011 OVC037 14/13 A2981 RMK AO2 CIG 004V009 P0010 T01390128
  • KGRR: Grand Rapids, Gerald R. Ford Intl Arpt, MI, United States
    KGRR 082327Z 01006KT 1 3/4SM +RA BR FEW007 OVC035 14/13 A2981 RMK AO2 P0008 T01390128
  • KGYY: Gary Regional, IN, United States
    KGYY 082145Z COR 34017G24KT 2SM +RA BR BKN026 16/16 A2978
  • KHAI: Three Rivers, MI, United States
    KHAI 090015Z AUTO 36006KT 4SM +RA BKN035 OVC042 16/15 A2978 RMK AO2 T01640146
  • KHIE: Whitefield, NH, United States
    KHIE 082052Z AUTO 28009G22KT 1 1/4SM +RA BKN033 BKN060 OVC090 15/12 A2965 RMK AO2 RAB49 SLP042 P0008 60010 T01500122 53010
  • KHWO: Hollywood, North Perry Airport, FL, United States
    KHWO 082050Z 23009KT 3SM +RA FEW019 BKN046 OVC080 26/23 A2996 RMK AO2 LTG DSNT NW RAB25 TSB06E21 P0020 $
  • KIGQ: Chicago, Lansing Municipal Airport, IL, United States
    KIGQ 082155Z AUTO 36015G21KT 2 1/2SM +RA SCT009 SCT031 OVC047 16/15 A2978 RMK AO2 VIS 3/4V5 P0004 T01570152
  • KLWA: South Haven, MI, United States
    KLWA 082255Z AUTO 02012G18KT 7SM +RA OVC041 15/14 A2978 RMK AO2 T01510140
  • KMDW: Chicago, Chicago Midway Airport, IL, United States
    KMDW 082112Z 36019G25KT 1 1/2SM +RA BR BKN020 OVC037 17/14 A2979 RMK AO2 P0009 T01670139
  • KMOP: Mount Pleasant, MI, United States
    KMOP 082115Z AUTO 00000KT 4SM +RA SCT011 BKN065 OVC080 14/13 A2983 RMK AO2 P0002 T01360128
  • KOPF: Miami, Opa Locka Airport, FL, United States
    KOPF 082053Z 30003KT 4SM +RA BR BKN050 BKN060 OVC075 26/25 A2994 RMK AO2 TSB04E28B35E50 SLP141 P0059 60066 T02610250 56005
  • KPHN: St. Clair County International, MI, United States
    KPHN 082335Z AUTO 36004KT 5SM +RA OVC006 13/12 A2983 RMK AO2
    KPHN 082356Z AUTO 05003KT 4SM +RA BKN006 BKN029 OVC039 13/12 A2982 RMK AO2
  • KPQI: Presque Isle, ME, United States
    KPQI 082046Z AUTO 23012KT 7SM +RA SCT009 BKN014 OVC025 14/13 A2952 RMK AO2 TSB25E40RAB09 P0021
  • KPWC: Pine River, Pine River Regional Airport, MN, United States
    KPWC 082156Z AUTO 34012G24KT 7SM +RA SCT025 SCT080 SCT110 19/09 A2994 RMK AO2
  • KRMY: Marshall, Brooks Field Airport, MI, United States
    KRMY 090015Z AUTO 04007KT 5SM +RA OVC009 15/13 A2978 RMK AO2 P0001 T01480133
  • KRZN: Siren, Burnett County Airport, WI, United States
    KRZN 090035Z AUTO 30021G33KT 7SM +RA SCT080 20/07 A2989 RMK AO2 T02020065
  • KSUW: Superior, Richard I. Bong Airport, WI, United States
    KSUW 082155Z AUTO 26012G31KT 5SM +RA SCT050 BKN080 OVC100 18/07 A2981 RMK AO2 T01830070
  • KY70: Ionia, MI, United States
    KY70 082335Z AUTO 00000KT 2 1/2SM +RA SCT008 BKN015 OVC034 14/14 A2981 RMK AO2 VIS 1 1/2V5 P0011 T01400140
    KY70 082355Z AUTO 00000KT 3SM +RA SCT004 BKN008 OVC014 14/14 A2981 RMK AO2 P0021 60024 T01380138 10225 20138
  • LETL: Tereul, Spain
    LETL 082100Z AUTO 13005KT 070V170 2400 +RA FEW029 BKN041 13/13 Q1013
  • LFBM: Mont-De-Marsan, France
    LFBM 090030Z AUTO 19006KT 150V220 3400 +RA BR SCT004/// BKN009/// BKN025/// //////CB 18/18 Q1011
    LFBM 090030Z AUTO 19006KT 150V220 3400 +RA BR SCT004/// BKN009/// BKN025/// ///CB 18/18 Q1011
  • LFBZ: Biarritz, France
    LFBZ 082230Z AUTO 27011KT 220V290 3300 +RA BR BKN004/// BKN016/// OVC045/// //////CB 17/17 Q1012
    LFBZ 082230Z AUTO 27011KT 220V290 3300 +RA BR BKN004/// BKN016/// OVC045/// ///CB 17/17 Q1012
  • LSMD: Dubendorf, Switzerland
    LSMD 082150Z AUTO 00000KT 4500NDV +RA FEW003 SCT050 18/17 Q1013 RMK
  • LSME: Emmen, Switzerland
    LSME 082250Z AUTO 35003KT 250V050 3900NDV +SHRA BKN008 BKN026 17/17 Q1014 RMK
    LSME 082320Z AUTO 08003KT 360V120 9000NDV +RA SCT013 BKN023 OVC053 16/16 Q1013 RMK
  • LSZC: Buochs, Switzerland
    LSZC 082250Z AUTO VRB04KT 1500 +RA FEW018 SCT027 BKN030 SCT///CB 18/17 Q1014
  • LSZH: Zurich-Kloten, Switzerland
    LSZH 082150Z AUTO 21004KT 9999 3500N +RA SCT050 BKN060 17/16 Q1014 NOSIG
  • LSZR: Saint Gallen-Altenrhein, Switzerland
    LSZR 082250Z AUTO 33003KT 280V010 4200 +RA FEW005 SCT023 BKN026 //////TCU 18/18 Q1013
  • LZPP: Piestany, Slovakia
    LZPP 082330Z AUTO 20009KT 9999 +RA BKN047/// 20/19 Q1008
    LZPP 090030Z AUTO 26014KT 240V300 3800 +RA FEW026/// SCT042/// 18/18 Q1009
  • MMMX: Mexico City / Licenci, Mexico
    MMMX 090005Z 35015G25KT 3SM +RA BKN015CB OVC070 20/12 A3024 NOSIG RMK 8/96/ HZY RAB03 TWR VSBY
    MMMX 090022Z 02015KT 3SM +RA BKN015CB OVC070 18/14 A3027 NOSIG RMK 8/96/ HZY
    MMMX 090028Z 34012KT 3SM +RA BKN015CB OVC070 16/14 A3027 NOSIG RMK 8/96/
  • PTRO: Babelthuap Island, Babelthuap/Koror Airport, Palau
    PTRO 082233Z 16005KT 2SM +SHRA OVC014CB 26/25 A2988
    PTRO 082233Z 16005KT 2SM +SHRA OVC014CB 26/25 A2988 RMK CB ALQDS AND OHD
  • RJFM: Miyazaki Airport, Japan
    RJFM 082300Z 31005KT 290V030 2500 R27/1100V1600U +SHRA BR FEW002 SCT008 BKN015 21/21 Q1005
    RJFM 082331Z 23006KT 190V290 2500 R27/1300VP2000D +SHRA BR FEW002 SCT006 BKN015 21/21 Q1005 RMK 2ST002 3ST006 7CU015 A2970 RI++
    RJFM 090000Z 36006KT 3000 R27/1400VP2000N +SHRA BR FEW002 SCT006 BKN010 22/21 Q1005
  • RJFY: Kanoya Ab, Japan
    RJFY 082116Z 11004KT 3100 +SHRA BR FEW003 SCT009 BKN025 FEW025CB 21/20 Q1005 RMK 2ST003 3ST009 7CU025 1CB025 A2969 CB 10KM S MOV NE
  • RJOA: Hiroshima Airport, Japan
    RJOA 090031Z 10009KT 2000 R10/P2000N +RA BCFG BR FEW000 SCT002 BKN004 17/17 Q1011 RMK 1ST000 3ST002 5ST004 A2985 FG ALL QUAD
  • RJOI: Iwakuni Marine Corps Air Stn, Japan
    RJOI 082156Z 02008KT 2000 +RA BR FEW007 BKN020 OVC040 20/18 A2982 RMK AO2 SLP099 P0043 T02000183
    RJOI 082256Z 04009KT 2400 +RA BR SCT003 BKN010 OVC020 20/19 A2982 RMK AO2 SLP098 P0045 T02000189
  • RJOM: Matsuyama Airport, Japan
    RJOM 082141Z 03012KT 3000 +RA BR FEW004 SCT035 BKN060 20/19 Q1008 RMK 1ST004 3CU035 5SC060 A2978
  • SBBE: Belem Aeroporto, Brazil
    SBBE 082100Z 04015KT 1200 R06/0150N +RA SCT014 BKN039 BKN070 27/25 Q1013
  • SBFN: Fernando De Noronha, Brazil
    SBFN 082253Z AUTO 12013KT 3000 +RA OVC005 25/24 Q1016
    SBFN 082300Z AUTO 12012KT 6000 +RA BKN006 BKN024 25/24 Q1016
  • SCCH: Chillan, Chile
    SCCH 082100Z 03020KT 2000 +RA OVC020 14/12 Q1007
  • SCGE: Maria Dolores, Chile
    SCGE 082100Z 36020KT 4000 +RA BKN010 OVC030 13/12 Q1006
  • SCQP: La Araucania, Chile
    SCQP 082100Z 02012KT 6000 +RA OVC015 12/12 Q1004
  • SCSN: Santo Domingo, Chile
    SCSN 090000Z AUTO 36004KT 310V060 7000 +RA FEW002 BKN032 OVC053 12/12 Q1016
  • SKMU: Mitu, Colombia
    SKMU 082100Z VRB03KT 2500 +RA SCT010 BKN020TCU 23/23 Q1014
  • UHHH: Habarovsk, Russia
    UHHH 082130Z 04004MPS 0900 0800NE R05L/1100U R05R/1600U +SHRA BKN002 OVC013CB 11/11 Q1005 R88/290045 NOSIG RMK QBB060 QFE747/0997
  • VHHH: Hong Kong Inter-National Airport, Hong Kong
    VHHH 082311Z VRB04KT 9999 2100E +SHRA FEW008 FEW012CB SCT018 28/26 Q1007
    VHHH 082330Z 22024KT 1000 0800W R07R/0900D R25L/P2000D R07L/1200D R25R/1800D +SHRA FEW008 FEW012CB SCT018 26/24 Q1007
    VHHH 082332Z 22023KT 0750 0600E R07R/0800U R25L/1900D R07L/1400D R25R/0500D +SHRA FEW008 FEW012CB SCT018 25/24 Q1007
    VHHH 082346Z 21014KT 170V230 1600 1200N R07R/P2000U R25L/P2000U R07L/P2000D R25R/P2000U +SHRA FEW008 FEW012CB SCT018 26/24 Q1008
    VHHH 082352Z 20012KT 2000 1300E R07R/P2000N R25L/P2000U R07L/P2000N R25R/P2000N +SHRA VCTS FEW008 FEW012CB SCT018 26/24 Q1007
    VHHH 090000Z 21010KT 5000 2400S +SHRA VCTS FEW008 FEW012CB SCT018 26/24 Q1007
    VHHH 090034Z 20008KT 170V230 4300 +SHRA VCTS FEW008 FEW012CB SCT018 26/24 Q1008
  • WAMM: Menado / Dr. Sam Ratulangi, Indonesia
    WAMM 082330Z VRB01KT 9999 FEW021 29/25 Q1013 NOSIG METAR WIBB 082330Z 21010KT 0700 +RA BKN009 FEW015CB 24/24 Q1009
  • WIBB: Pakanbaru / Simpangtiga, Indonesia
    WIBB 082330Z 21010KT 0700 +RA BKN009 FEW015CB 24/24 Q1009
  • YPCC: Cocos Island Airport, Christmas Island
    YPCC 082200Z AUTO 09005KT 3700 +RA SCT024 BKN033 BKN043 25/23 Q1011
  • YPPH: Belmont Perth Airport, Australia
    YPPH 082047Z AUTO 27014KT 260V330 1100 +SHRA SCT007 BKN016 OVC027 18/17 Q1004
  • ZGSZ: Shenzhen, China
    ZGSZ 082300Z 27003MPS 220V300 8000 +SHRA SCT010 FEW020CB BKN030 27/25 Q1007
    ZGSZ 090000Z VRB01MPS 6000 +SHRA SCT010 FEW020CB BKN030 26/25 Q1007
5 stations reporting unknown precipitation type

  • ESST: Torsby Airport, Sweden
    ESST 082350Z AUTO 16006KT 9999 UP FEW025/// SCT035/// BKN042/// 07/06 Q0995 RERA
  • KCBF: Council Bluffs, IA, United States
    KCBF 082135Z AUTO 03008KT 9SM UP CLR 22/15 A2992 RMK AO2
  • KGGF: Grant, NE, United States
    KGGF 082215Z AUTO 07011KT 10SM UP FEW060 FEW075 FEW120 19/17 A3000 RMK AO2
  • KHAI: Three Rivers, MI, United States
    KHAI 082335Z AUTO 34003KT 10SM UP OVC048 20/13 A2975 RMK AO2 T01970125
  • KVLL: Troy/Oakland, MI, United States
    KVLL 082155Z AUTO 02004KT 10SM UP SCT060 OVC075 22/10 A2980 RMK AO2 T02220099


0 stations reporting ice accretion in the past 1 hour

0 stations reporting ice accretion in the past 3 hours

0 stations reporting ice accretion in the past 6 hours

0 stations reporting hourly snow depth increase (SNINCR) of 3+"

0 stations reporting hourly snow depth increase (SNINCR) of 2"

0 stations reporting hourly snow depth increase (SNINCR) of 1"

0 stations reporting hourly (melted) precip total of 3" or greater

0 stations reporting hourly (melted) precip total of 2-2.99"

0 stations reporting hourly (melted) precip total of 1-1.99"

3 stations reporting hourly (melted) precip total of 0.5-0.99"

  • KAKO: Akron, Akron-Washington County Airport, CO, United States [0.58in]
    KAKO 082238Z AUTO 1SM +TSRA BR SCT009 BKN036 OVC075 13/13 A3007 RMK AO2 LTG DSNT ALQDS RAB27 TSB20 P0053 T01330128 $
    KAKO 082245Z AUTO 1 1/4SM -TSRA BR BKN024 BKN041 OVC070 13/13 A3005 RMK AO2 LTG DSNT ALQDS RAB27 TSB20 P0058 T01330128 $
    KAKO 082247Z AUTO 2 1/2SM -TSRA BR BKN026 BKN041 OVC070 13/13 A3006 RMK AO2 LTG DSNT ALQDS RAB27 TSB20 P0058 $
    KAKO 082253Z AUTO 10SM -TSRA SCT028 BKN044 OVC090 13/11 A3005 RMK AO2 LTG DSNT ALQDS RAB27 TSB20 SLP142 P0058 T01330111 $
  • KFMM: Fort Morgan, CO, United States [0.76in]
    KFMM 082155Z AUTO 04019G35KT 1/4SM +TSRA FG OVC003 15/15 A3001 RMK AO2 LTG DSNT ALQDS P0076
  • KOPF: Miami, Opa Locka Airport, FL, United States [0.59in]
    KOPF 082053Z 30003KT 4SM +RA BR BKN050 BKN060 OVC075 26/25 A2994 RMK AO2 TSB04E28B35E50 SLP141 P0059 60066 T02610250 56005
0 stations reporting 3 or 6 hourly (melted) precip total of 5" or greater

0 stations reporting 3 or 6 hourly (melted) precip total of 4-4.99"

0 stations reporting 3 or 6 hourly (melted) precip total of 3-3.99"

0 stations reporting 3 or 6 hourly (melted) precip total of 2-2.99"


0 stations reporting tornado, funnel cloud or waterspout

0 stations reporting mammatus cloud

0 stations reporting hail

0 stations reporting thundersnow

0 stations reporting thundersleet

0 stations reporting thunder with freezing rain

81 stations reporting thunder with rain

  • CYLD: Chapleau, Ont., Canada
    CYLD 082230Z 00000KT 15SM -TSRA FEW039CB OVC056 14/10 A2963 RMK CB1NS7 SLP046 DENSITY ALT 2100FT
  • CYRQ: Trois Rivieres, Que, Canada
    CYRQ 082109Z AUTO 25005KT 9SM -TSRA FEW034 SCT049 BKN086 OVC210 18/16 A2953 RMK SLP004 DENSITY ALT 1000FT
  • CYSB: Sudbury, Ont., Canada
    CYSB 082100Z 24013G25KT 15SM -TSRA SCT042CB BKN110 18/10 A2965 RMK CB4AC3 SLP047 DENSITY ALT 2100FT
  • CYSC: Sherbrooke, Que., Canada
    CYSC 082050Z AUTO 25013G18KT 7SM TSRA FEW010 SCT021 BKN032 BKN046 17/14 A2957 RMK LTNG DIST N NW PCPN 1.3MM PAST HR SLP015 DENSITY ALT 1700FT
    CYSC 082055Z AUTO 24008G18KT 7SM -TSRA FEW010 BKN026 BKN044 OVC055 17/15 A2956 RMK LTNG DIST N NW PCPN 1.8MM PAST HR SLP014 DENSITY ALT 1600FT
    CYSC 082059Z AUTO 24007G17KT 8SM -TSRA FEW008 SCT023 BKN036 OVC076 17/15 A2956 RMK LTNG DIST N NW PCPN 2.0MM PAST HR SLP014 DENSITY ALT 1600FT
    CYSC 082100Z AUTO 25007G15KT 8SM -TSRA FEW008 SCT023 BKN036 BKN055 17/15 A2956 RMK LTNG DIST N NE NW PCPN 2.0MM PAST HR SLP015 DENSITY ALT 1600FT
    CYSC 082106Z AUTO 24008KT 210V280 9SM -TSRA FEW012 BKN022 BKN036 BKN055 17/15 A2957 RMK LTNG DIST ALQDS SLP016 DENSITY ALT 1600FT
    CYSC 082126Z AUTO 27006KT 220V290 9SM -TSRA BKN016 BKN034 BKN047 16/15 A2958 RMK LTNG DIST NE E SE SLP019 DENSITY ALT 1500FT
  • CYYG: Charlottetown, P. E. I., Canada
    CYYG 082346Z 18002KT 3SM -TSRA OVC010CB 15/14 A2955 RMK CB8 SLP008 DENSITY ALT 700FT
  • DGAA: Accra, Ghana
    DGAA 082200Z 10005KT 070V160 8000 -TSRA SCT016 SCT028CB BKN033 25/22 Q1015 NOSIG
  • GOTK: Kedougou, Senegal
    GOTK 082100Z 28004KT 8000 -TSRA FEW030CB 26/24 Q1015
    GOTK 082200Z 22004KT 8000 -TSRA FEW030CB 26/24 Q1015
  • GOTT: Tambacounda, Senegal
    GOTT 082300Z 15016KT 9000 -TSRA SCT015 FEW030CB 27/22 Q1017
    GOTT 090000Z 18012KT 9999 -TSRA FEW030CB 26/22 Q1015
  • K1EW: Echo Madis, NE, United States
    K1EW 082055Z AUTO 00000KT 10SM TSRA FEW038 OVC085 17/13 A3007 RMK AO2 RAB09 TSB29 PRESRR SLP141 P0013 60013 T01710128 53014 $
  • K2V5: Wray Municipal Airport, CO, United States
    K2V5 082355Z AUTO 10SM -TSRA SCT060 OVC095 A3008 RMK AO2 LTG DSNT ALQS
  • K2V6: Yuma, CO, United States
    K2V6 082314Z AUTO 04019G30KT 10SM -TSRA BKN045 OVC050 20/00 A3002 RMK AO2 LTG DSNT ALQS
    K2V6 082354Z AUTO 07021G27KT 7SM -TSRA SCT040 BKN070 OVC090 16/13 A3002 RMK AO2 LTG DSNT ALQS
  • K82V: Pine Bluffs Municipality, WY, United States
    K82V 082055Z AUTO 25016G24KT 5SM TSRA 13/11 A3012 RMK AO2 LTG DSNT ALQS
    K82V 082115Z AUTO 09008KT 7SM -TSRA 14/12 A3006 RMK AO2 LTG DSNT ALQS
  • KAKO: Akron, Akron-Washington County Airport, CO, United States
    KAKO 082245Z AUTO 1 1/4SM -TSRA BR BKN024 BKN041 OVC070 13/13 A3005 RMK AO2 LTG DSNT ALQDS RAB27 TSB20 P0058 T01330128 $
    KAKO 082247Z AUTO 2 1/2SM -TSRA BR BKN026 BKN041 OVC070 13/13 A3006 RMK AO2 LTG DSNT ALQDS RAB27 TSB20 P0058 $
    KAKO 082253Z AUTO 10SM -TSRA SCT028 BKN044 OVC090 13/11 A3005 RMK AO2 LTG DSNT ALQDS RAB27 TSB20 SLP142 P0058 T01330111 $
  • KASE: Aspen, Aspen-Pitkin County Airport, CO, United States
    KASE 082353Z 16006KT 10SM -TSRA SCT070 BKN090 OVC110 16/11 A3019 RMK AO2 TSB46 SLP124 P0001 60003 T01610111 10261 20161 53012
  • KBGR: Bangor, Bangor Intl Arpt, ME, United States
    KBGR 082202Z 24005KT 10SM -TSRA SCT040CB SCT055 BKN080 19/14 A2956 RMK AO2 TSB01 OCNL LTGICCC N TS N MOV E P0000 T01890139
  • KBJC: Broomfield / Jeffco, CO, United States
    KBJC 082110Z 34013G25KT 10SM -TSRA SCT090 BKN110 25/09 A3001 RMK TSB2050 OCNL LTGCG N TS OHD MOV E
  • KBKF: Aurora, Buckley AFB Airport, CO, United States
    KBKF 082254Z 02016KT 10SM -TSRA BKN100 BKN160 BKN200 19/14 A3002 RMK AO2A SLP105
    KBKF 082258Z 02016KT 10SM -TSRA BKN100 BKN160 BKN200 19/14 A3000 RMK AO2A PK WND 01030/25 RAB45 TSB54 PRESFR SLP098 P0000 T01940140
  • KC07: Walton Peak, CO, United States
    KC07 082355Z AUTO 33004KT 10SM -TSRA SCT043 BKN090 OVC110 08/05 A3039 RMK AO2 LTG DSNT ALQS P0001
  • KCYS: Cheyenne, Cheyenne Airport, WY, United States
    KCYS 082349Z 09012G19KT 10SM -TSRA FEW046 FEW110 18/12 A3005 RMK AO2 LTG DSNT NE AND S AND SW RAB36 TSB43 P0000
  • KDEN: Denver, Denver Intl Arpt, CO, United States
    KDEN 082259Z 04014G23KT 9SM -TSRA FEW080CB BKN110 BKN150 BKN200 17/13 A3002 RMK AO2 RAB58 TSB57 OCNL LTGIC OHD TS OHD MOV E P0000 T01720128
  • KEAN: Phifer Airfield, WY, United States
    KEAN 082155Z AUTO 12003KT 10SM -TSRA SCT080 OVC100 20/13 A3001 RMK AO2 LTG DSNT S THRU N T02030125
  • KEIK: Erie, PA, United States
    KEIK 082115Z AUTO 02005KT 4SM -TSRA SCT055 BKN100 BKN120 BKN140 22/15 A2996 RMK AO2 RAB2107 TSB2058 P0002 T02220152
    KEIK 090035Z AUTO 32008KT 6SM TSRA BKN048 BKN100 19/14 A3006 RMK AO2 RAB0034 TSB0033 P0004 T01880144
  • KGNB: Granby, CO, United States
    KGNB 082115Z AUTO 23008KT 7SM TSRA BKN070 BKN090 16/M14 A3022 RMK AO2 LTG DSNT ALQS T01581136
  • KGRB: Green Bay, Austin Straubel Intl Arpt, WI, United States
    KGRB 090018Z 26006KT 9SM -TSRA FEW055 BKN080 OVC110 17/12 A2978 RMK AO2 PK WND 31031/2359 LTG DSNT SE AND NW RAB2359 TSB12 P0004 T01720117 $
  • KGXY: Greeley / Weld, CO, United States
    KGXY 082307Z 08007KT 1SM -TSRA FEW050 SCT065 BKN110 17/12 A3003 RMK AO2 TSB01RAB05
    KGXY 082315Z 09014KT 8SM -TSRA FEW043 SCT055 BKN095 17/13 A2998 RMK AO2 TSB01RAB05
  • KHDN: Hayden / Yampa, CO, United States
    KHDN 082256Z AUTO 33013G24KT 10SM TSRA FEW030 BKN080 OVC100 19/11 A3010 RMK AO2 TSB41RAB30 SLP128 P0005 T01890111
  • KHEQ: Holyoke, CO, United States
    KHEQ 082315Z AUTO 00000KT 7SM TSRA SCT009 OVC014 19/15 A3008 RMK AO2 LTG DSNT SW AND W
  • KIBM: Kimball, NE, United States
    KIBM 082055Z AUTO 12004KT 10SM -TSRA OVC100 19/13 A3007 RMK AO2 LTG DSNT S THRU W T01870134
  • KJEF: Jefferson City,MO, United States
    KJEF 090038Z 35004KT 6SM -TSRA FEW035 BKN050 OVC090 28/24 A2979 RMK AO2 LTG DSNT ALQDS RAB19 TSB32 FRQ LTGCG W TS W MOV SE P0002 T02780239 $
  • KLBO: Lebanon, MO, United States
    KLBO 090035Z AUTO 35005KT 10SM TSRA SCT034 BKN050 OVC110 25/21 A2983 RMK AO2 LTG DSNT ALQS
  • KLHX: La Junta, La Junta Municipal Airport, CO, United States
    KLHX 082303Z AUTO 27029G46KT 2 1/2SM -TSRA SQ FEW050 BKN110 21/14 A2986 RMK AO2 PK WND 28046/2303 VIS 1V5 LTG DSNT ALQDS RAB01 P0002 T02110139
    KLHX 082315Z AUTO 33009G32KT 3SM -TSRA FEW048 BKN100 OVC120 19/14 A2984 RMK AO2 PK WND 28046/2303 LTG DSNT ALQDS RAB01 P0002 T01940144
    KLHX 082328Z AUTO 12019G23KT 2SM -TSRA SCT034 BKN070 BKN100 19/14 A2985 RMK AO2 PK WND 28046/2303 LTG DSNT N-SE RAB01 P0002 T01940144
    KLHX 082334Z AUTO 08015KT 10SM -TSRA FEW032 SCT070 19/15 A2984 RMK AO2 PK WND 28046/2303 WSHFT 2320 LTG DSNT N-SE RAB01 P0002 T01890150
  • KLIC: Limon, Limon Municipal Airport, CO, United States
    KLIC 082117Z AUTO 09005KT 8SM -TSRA FEW028 BKN060 OVC100 25/16 A2997 RMK AO2 LTG DSNT ALQDS RAB2059 TSB11 P0000 T02500156
  • KOPF: Miami, Opa Locka Airport, FL, United States
    KOPF 082331Z 26013G19KT 10SM -TSRA FEW041 SCT050 27/23 A2995 RMK AO2 LTG DSNT SW AND W RAB25 TSB02E17B25 P0000 T02670228 $
  • KSTK: Sterling, CO, United States
    KSTK 082155Z AUTO 35016G20KT 10SM -TSRA SCT070 BKN090 OVC110 20/15 A2998 RMK AO2 LTG DSNT S THRU W
    KSTK 082235Z AUTO 01015G23KT 7SM TSRA SCT018 BKN035 OVC065 17/16 A3001 RMK AO2 P0004 LTG DSNT ALQS
  • KTBN: Fort Leonard Wood, MO, United States
    KTBN 090026Z AUTO 36003KT 6SM -TSRA BR FEW038 BKN065 26/24 A2976 RMK AO2 DZB2357E06RAB06 TSB26 PRESFR SLP070
  • LFBA: Agen, France
    LFBA 082230Z AUTO 29006KT 9999 -TSRA BKN040/// OVC049/// //////CB 23/19 Q1008
    LFBA 082230Z AUTO 29006KT 9999 -TSRA BKN040/// OVC049/// ///CB 23/19 Q1008
    LFBA 090030Z AUTO 27009KT 6000 TSRA FEW024/// SCT048/// BKN058/// //////CB 19/19 Q1008
    LFBA 090030Z AUTO 27009KT 6000 TSRA FEW024/// SCT048/// BKN058/// ///CB 19/19 Q1008
  • LFBM: Mont-De-Marsan, France
    LFBM 082130Z AUTO 21004KT 160V260 6000 -TSRA FEW024/// BKN060/// BKN076/// //////CB 19/19 Q1010
    LFBM 082130Z AUTO 21004KT 160V260 6000 -TSRA FEW024/// BKN060/// BKN076/// ///CB 19/19 Q1010
  • LFBP: Pau, France
    LFBP 082200Z AUTO 24008KT 210V270 6000 2600 TSRA OVC008/// //////CB 18/17 Q1011
    LFBP 082200Z AUTO 24008KT 210V270 6000 2600 TSRA OVC008/// ///CB 18/17 Q1011
    LFBP 082230Z AUTO 21007KT 140V250 9999 -TSRA BKN007/// BKN017/// OVC028/// //////CB 18/17 Q1011
    LFBP 082230Z AUTO 21007KT 140V250 9999 -TSRA BKN007/// BKN017/// OVC028/// ///CB 18/17 Q1011
    LFBP 082330Z AUTO 30009KT 9999 -TSRA FEW054/// SCT064/// BKN074/// //////CB 17/17 Q1011
    LFBP 082330Z AUTO 30009KT 9999 -TSRA FEW054/// SCT064/// BKN074/// ///CB 17/17 Q1011
  • LFBT: Tarbes / Ossun, France
    LFBT 082130Z AUTO 27011KT 240V300 9999 -TSRA SCT009/// OVC016/// //////CB 17/16 Q1012
    LFBT 082130Z AUTO 27011KT 240V300 9999 -TSRA SCT009/// OVC016/// ///CB 17/16 Q1012
    LFBT 082230Z AUTO 32014KT 280V350 7000 TSRA SCT011/// BKN032/// BKN052/// //////CB 17/16 Q1010
    LFBT 082230Z AUTO 32014KT 280V350 7000 TSRA SCT011/// BKN032/// BKN052/// ///CB 17/16 Q1010
    LFBT 082300Z AUTO 24011KT 190V290 9999 -TSRA BKN008/// OVC100/// //////CB 17/16 Q1011
    LFBT 082300Z AUTO 24011KT 190V290 9999 -TSRA BKN008/// OVC100/// ///CB 17/16 Q1011
  • LFBZ: Biarritz, France
    LFBZ 082200Z AUTO 29014KT 3800 TSRA BR BKN005/// BKN010/// BKN048/// //////CB 17/17 Q1012
    LFBZ 082200Z AUTO 29014KT 3800 TSRA BR BKN005/// BKN010/// BKN048/// ///CB 17/17 Q1012
  • LHBP: Budapest / Ferihegy, Hungary
    LHBP 090000Z 12006KT 9999 -TSRA SCT050CB BKN100 22/16 Q1008
    LHBP 090030Z 34005KT 9000 -TSRA SCT050CB BKN100 20/18 Q1008
  • LHPA: Papa, Hungary
    LHPA 082045Z 10003KT 9999 -TSRA SCT043CB FEW046TCU BKN083 23/18 Q1009 RESHRA NOSIG RMK BLU
    LHPA 082051Z 10003KT 8000 -TSRA SCT040CB FEW046TCU OVC083 23/19 Q1009 RMK BLU
    LHPA 082115Z VRB01KT 6000 -TSRA SCT040CB FEW046TCU OVC083 22/19 Q1009 NOSIG RMK WHT
    LHPA 082136Z 24016G36KT 6000 TSRA SQ FEW026 SCT040CB SCT046TCU OVC083 22/19 Q1010 RMK WHT
    LHPA 082145Z 24021G31KT 210V270 6000 TSRA FEW026 SCT040CB SCT046TCU OVC083 19/17 Q1011 NOSIG RMK WHT
    LHPA 082146Z 23020G31KT 3000 TSRA FEW026 SCT040CB SCT046TCU OVC083 18/17 Q1011 RMK YLO
    LHPA 082215Z 20007KT 4000 TSRA FEW013 SCT040CB SCT046TCU OVC083 19/17 Q1010 NOSIG RMK GRN
    LHPA 082245Z 14009KT 6000 -TSRA FEW016 FEW040CB SCT046TCU OVC083 18/17 Q1009
  • LHPR: Gyor Per, Hungary
    LHPR 082215Z AUTO VRB01KT 9999 TSRA BKN055 //////CB 21/19 Q1009
  • LHSM: Balaton, Hungary
    LHSM 082215Z AUTO 34014KT 310V010 9999 -TSRA SCT057 //////CB 20/18 Q1009
  • LKMT: Ostrava / Mosnov, Czech Republic
    LKMT 082130Z 24005KT 190V270 9999 -TSRA FEW028CB BKN047 19/16 Q1008
  • LOWI: Innsbruck-Flughafen, Austria
    LOWI 082320Z AUTO VRB02KT 9999 -TSRA //////CB FEW012 SCT019 BKN048 17/16 Q1013 RETSRAGR
  • LSZG: Grenchen, Switzerland
    LSZG 082050Z AUTO 34007KT 300V020 7000 TSRA FEW033CB SCT037 BKN042 18/16 Q1013 RERA
  • LTCB: Agri, Turkey
    LTCB 082321Z 20004KT 9999 -TSRA FEW020CB SCT033 BKN080 21/17 Q1011 RETS
    LTCB 082350Z VRB02KT 9999 -TSRA FEW020CB BKN028 21/18 Q1010 RETS
  • LTCJ: Batman, Turkey
    LTCJ 082120Z 02006KT 280V040 9999 -TSRA FEW025CB BKN100 24/13 Q1003 RETS NOSIG
    LTCJ 082120Z 02006KT 280V040 9999 -TSRA FEW025CB BKN100 24/13 Q1003 RETS NOSIG RMK RWY20 36006KT 1CB025 1CU040 5AC100
  • LTCW: Hakkari Yuksekova, Turkey
    LTCW 082311Z 31007KT 270V060 9000 -TSRA FEW020CB SCT030 BKN100 12/10 Q1019 RETS
    LTCW 082350Z 09007KT 040V150 9000 -TSRA FEW020CB SCT030 BKN100 14/10 Q1018 RETS
  • MGHT: Huehuetenango, Guatemala
    MGHT 082100Z 27008KT 9999 -TSRA FEW030 SCT032CB SCT200 24/18 CB/TS/W CB/ SBR STN
  • MHLC: La Ceiba Airport, Honduras
    MHLC 090031Z 26009KT 5000 TSRA SCT020CB BKN070 28/25 Q1009 A2980 NOSIG
  • MHPL: Puerto Lempira, Honduras
    MHPL 082100Z 00000KT 5000 -TSRA SCT018 FEW026CB SCT080 26/23
  • MKJS: Montego Bay / Sangster, Jamaica
    MKJS 082300Z 08007KT 9999 -TSRA BKN018 BKN020CB 28/26 Q1013
    MKJS 082300Z 08007KT 9999 -TSRA BKN018 BKN020CB SCT032 28/26 Q1013
    MKJS 090000Z 09011KT 9999 -TSRA SCT018 BKN020CB 28/26 Q1014
  • MRLB: Liberia, Costa Rica
    MRLB 090000Z COR 25004KT 9999 -TSRA BNK020CB 28/27 A2990
  • MROC: Juan Santamaria, Costa Rica
    MROC 082133Z 23007KT 9999 -TSRA SCT015CB BKN040 24/22 A3007 NOSIG
    MROC 082238Z 26005KT 9000 -TSRA SCT030CB BKN080 23/22 A3009 NOSIG
    MROC 082300Z 27005KT 9000 -TSRA FEW010CB BKN080 23/22 A3011 NOSIG
    MROC 082312Z 28004KT 240V320 5000 -TSRA BR SCT010CB BKN050 23/22 A3011 NOSIG
    MROC 082331Z 29007KT 5000 TSRA BR BKN005CB 23/22 A3013 NOSIG
  • MRPV: Tobias Bolanos International, Costa Rica
    MRPV 082141Z 31004KT 9999 TSRA FEW010 BKN020CB SCT090 23/22 A3007 NOSIG
    MRPV 082200Z 32004KT 9999 TSRA FEW008 SCT020CB BKN090 23/22 A3006 NOSIG
    MRPV 082250Z 09005KT 4000 TSRA BKN010CB SCT040 22/22 A3010 NOSIG
    MRPV 082300Z 05006KT 020V080 4000 TSRA SCT010CB BKN060 22/22 A3010
  • MSLP: El Salvador Intl. Airport / Comalapa, El Salvador
    MSLP 082143Z 18005KT 120V240 9999 3000NE TSRA SCT015 BKN020 FEW033CB 30/27 Q1010
    MSLP 082200Z 18004KT 110V240 9999 3000NE TSRA SCT015 BKN020 SCT030CB 29/27 Q1010 A2984
    MSLP 082300Z 08003KT 030V160 9999 3000NE TSRA FEW015 SCT020 SCT030CB BKN033 28/26 Q1011 A2985
  • MSSA: Santa Ana / El Palmar, El Salvador
    MSSA 082050Z 00000KT 9999 -TSRA SCT033 FEW037CB 29/22 Q1017 A3005
    MSSA 082150Z 23003KT 9999 TSRA FEW033 SCT037CB 25/24 Q1017 A3004
  • MYNN: Nassau Airport, Bahamas, The
    MYNN 082100Z 23007KT 130V290 1600 TSRA SCT012CB BKN014TCU OVC035 25/24 A3003
  • RJFY: Kanoya Ab, Japan
    RJFY 082229Z 12005KT 090V170 3500 R26/1100VP1800D TSRA BR FEW003 SCT010 BKN025 FEW025CB 22/20 Q1005 RMK 2ST003 3CU010 7CU025 1CB025 A2968 R1400 FBL TS 20KM S MOV NE
    RJFY 082246Z 13004KT 090V180 4000 -TSRA BR FEW001 BKN025 FEW025CB BKN045 22/20 Q1005 RMK 2ST001 5CU025 1CB025 7SC045 A2968 FBL TS 25KM SE MOV NE
  • ROAH: Naha Airport, Japan
    ROAH 090017Z 22007KT 130V250 9999 -TSRA FEW005 BKN008 FEW020CB BKN120 27/26 Q1009 RMK 1ST005 5ST008 1CB020 6AC120 A2981 FBL TS 15KM NW-N MOV E
  • ROMY: Miyakojima, Japan
    ROMY 082200Z AUTO 23004KT 190V260 9999 -TSRA SCT008 SCT011 BKN034 //////CB 27/27 Q1008
    ROMY 082205Z AUTO 29011G22KT 230V320 9999 -TSRA FEW003 SCT009 BKN011 //////CB 25/25 Q1009 RMK A2980 TS 15KM NW AND NW-N MOV UNKNOWN
    ROMY 082232Z AUTO 23002KT 9999 -TSRA FEW003 SCT010 BKN013 //////CB 25/25 Q1009 RMK A2980 TS 10KM N MOV E
  • RORS: Shimoji-Shima Island, Japan
    RORS 082127Z AUTO 28010KT 9999 -TSRA FEW007 SCT023 BKN029 //////CB 27/27 Q1008 RMK A2979 TS 15KM W MOV NE TCU FM 25KM NW TO 30KM N MOV NE
    RORS 082135Z AUTO 28012KT 3700 R35/1400VP2000N -TSRA BR FEW007 SCT011 BKN021 //////CB 26/25 Q1009 RMK A2979 TS 10KM SW-W MOV E
    RORS 082136Z AUTO 28013G23KT 3900 R35/1400VP2000D -TSRA BR FEW007 SCT011 BKN023 //////CB 25/24 Q1009 RMK A2979 TS 5KM SW-NW MOV E
    RORS 082139Z AUTO 28012G23KT 240V310 3100 R35/1400VP2000D TSRA BR FEW007 SCT011 BKN034 //////CB 25/24 Q1009 RMK A2979 RI008 TS 5KM SW-NW MOV E
    RORS 082221Z AUTO 26004KT 210V300 9999 -TSRA FEW003 SCT023 BKN070 //////CB 25/25 Q1008 RMK A2979 TS 20KM NE MOV UNKNOWN
  • SBBV: Boa Vista, Boa Vista Intl, Brazil
    SBBV 082100Z 04007KT 7000 -TSRA FEW010 SCT030 FEW035CB BKN100 24/24 Q1012 RERA
  • SKAR: Armenia / El Eden, Colombia
    SKAR 082200Z 27008KT 230V300 4000 -TSRA FEW015CB BKN017 23/20 Q1017 RMK CB/E/SW
  • SKLT: Leticia / Vasquez Cobo, Colombia
    SKLT 082100Z VRB02KT 9999 -TSRA SCT013CB 24/24 Q1011RMK CB/S
  • SKPE: Pereira / Matecana, Colombia
    SKPE 082335Z 24006KT 190V290 8000 -TSRA SCT012CB BKN070 23/20 Q1019 RMK CB/S/SW
    SKPE 090000Z 22010KT 180V270 6000 TSRA SCT007 FEW012CB BKN070 21/18 Q1020 RMK CB/SW/W
    SKPE 090004Z 23011KT 6000 -TSRA BKN007 FEW010CB BKN070 20/18 Q1020 RMK CB/SW/W
  • SMJP: Johan A. Pengel, Suriname
    SMJP 082100Z 14010KT 9999 -TSRA SCT008 FEW012CB SCT018 26/24 Q1013
  • SPQT: Iquitos, Peru
    SPQT 082132Z 14007KT 090V210 6000 TSRA BKN006 FEW020CB BKN100 25/23 Q1013
    SPQT 082143Z 15008KT 100V210 2000 TSRA BKN005 FEW020CB BKN100 25/22 Q1013
    SPQT 082206Z 19004KT 150V240 4000 TSRA BKN008 FEW020CB OVC100 24/22 Q1013
    SPQT 082219Z 20004KT 170V240 7000 -TSRA SCT004 FEW020CB OVC100 24/22 Q1013 RETSRA
    SPQT 082235Z 20003KT 160V250 8000 -TSRA BKN005 FEW020CB OVC100 24/22 Q1014
  • VABB: Bombay / Santacruz, India
    VABB 082100Z 33004KT 1800 -TSRA SCT018 FEW030CB BKN090 30/28 Q1003
  • VDSV: Sihanoukville, Cambodia
    VDSV 082130Z /////KT 5000 TSRA SCT015 FEW017CB ///// Q//// RMK CB
    VDSV 082200Z /////KT 7000 -TSRA SCT015 FEW017CB ///// Q//// RMK CB
  • VVCI: Cat Bi, Viet Nam
    VVCI 082200Z VRB04KT 8000 -TSRA BKN010 BKN016 FEW027CB 26/25 Q1002 NOSIG
    VVCI 082230Z 15007KT 6000 TSRA BKN011 BKN018 FEW027CB 27/26 Q1002 NOSIG
  • VVCT: Can Tho, Viet Nam
    VVCT 090030Z 27008KT 230V320 8000 -TSRA BKN015 FEW017CB 26/26 Q1008 NOSIG
  • VVPQ: Phu Quoc, Viet Nam
    VVPQ 082100Z 25007KT 8000 -TSRA SCT015 FEW017CB SCT040 26/24 Q1006 NOSIG
    VVPQ 082130Z 29019KT 8000 -TSRA SCT015 FEW017CB SCT040 26/24 Q1006
    VVPQ 082200Z 29014KT 6000 -TSRA SCT013 FEW015CB SCT040 26/24 Q1006 NOSIG
    VVPQ 082230Z 28014KT 7000 -TSRA SCT013 FEW015CB BKN040 26/24 Q1007 NOSIG
    VVPQ 090030Z 27012KT 8000 -TSRA SCT013 FEW015CB BKN040 26/24 Q1008 NOSIG
  • VVVD: Vo Dat, Vietnam
    VVVD 082230Z 07008KT 040V120 9999 -TSRA BKN011 FEW023CB OVC026 24/24 Q1004 NOSIG
    VVVD 082300Z 04011KT 7000 -TSRA FEW013 FEW024CB OVC027 24/24 Q1004 NOSIG
    VVVD 090000Z 07007KT 7000 -TSRA BKN013 FEW025CB BKN029 24/24 Q1005 NOSIG
  • WIBB: Pakanbaru / Simpangtiga, Indonesia
    WIBB 090000Z 10005KT 3000 -TSRA BKN009 FEW015CB 24/24 Q1009
    WIBB 090030Z 13007KT 4000 -TSRA BKN009 FEW015CB 24/24 Q1009
  • WIMM: Medan / Polonia, Indonesia
    WIMM 082100Z 10003KT 5000 -TSRA FEW017CB SCT018 26/25 Q1008 NOSIG RMK CB TO NW
  • WMBA: Sitiawan, Malaysia
    WMBA 082200Z 31005KT 260V030 6000 -TSRA FEW017CB SCT030 25/24 Q1009
    WMBA 082300Z VRB02KT 7000 -TSRA FEW017CB SCT030 25/23 Q1009
  • WMKB: Buttersworth, Malaysia
    WMKB 082100Z 10003KT 040V170 6000 -TSRA FEW010 FEW017CB SCT024 26/23 Q1009 NOSIG
    WMKB 082200Z 12004KT 090V160 7000 -TSRA FEW010 FEW017CB SCT023 26/24 Q1008 NOSIG
    WMKB 082300Z 30010G23KT 230V360 6000 -TSRA FEW010 FEW017CB SCT023 23/21 Q1009
  • WMKP: Penang / Bayan Lepas, Malaysia
    WMKP 082115Z VRB02KT 6000 -TSRA FEW010 FEW017CB SCT025 26/23 Q1008 RETSRA NOSIG
    WMKP 082130Z 11003KT 060V150 6000 -TSRA FEW010 FEW017CB SCT025 25/23 Q1008 NOSIG
    WMKP 082200Z VRB01KT 6000 -TSRA FEW010 FEW017CB SCT025 26/23 Q1008 NOSIG
    WMKP 082230Z VRB02KT 6000 -TSRA FEW010 FEW017CB SCT025 26/24 Q1008 NOSIG


0 stations reporting blizzard conditions

0 stations reporting near-blizzard conditions


2 stations reporting visibility of zero

  • KMWN: Mount Washington, NH, United States
    KMWN 082055Z 29040G53KT 0SM -SHRA FG VV000 05/05 RMK
    KMWN 082258Z 28056G62KT 0SM FG VV000 05/05 RMK SHRAE35
    KMWN 082347Z 28056G67KT 0SM FG VV000 05/05 RMK 60032 10051 20039
    KMWN 082347Z COR 28056G67KT 0SM FG VV000 05/05 RMK 60032 10051 20039
    KMWN 092155Z 29053G58KT 0SM -SHRA FG VV000 08/08 RMK
  • LIVP: Paganella, Italy
    LIVP 082055Z 22012KT 0000 FG VV/// 10/09 Q1020
    LIVP 082055Z 22012KT 0000 FG VV/// 10/09 Q1020 RMK MON INVIS VAL INVIS VIS MIN 0000
11 stations reporting visibility 1/8 mile or less, but not zero

  • CWSA: Sable Island, N. S., Canada [1/8mile]
    CWSA 082300Z AUTO 17008KT 1/8SM -RA FG VV003 10/10 A2964 RMK SLP038
  • ESNX: Arvidsjaur, Sweden [200meters]
    ESNX 082320Z AUTO 13002KT 0200 R30/1300N BCFG NCD 05/05 Q1002
  • ESPE: Vidsel, Sweden [200meters]
    ESPE 082350Z AUTO 00000KT 0200 0100// R11/0225VP2000U R29/0250V0400N BCFG NCD 05/04 Q1003
    ESPE 090020Z AUTO 30002KT 0200 0100// R11/0400VP2000D R29/0250V0750N BCFG NCD 04/04 Q1003
  • ETHC: Celle, Germany [200meters]
    ETHC 082120Z AUTO 29004KT 0200 // ////// 12/09 Q1010 ///
    ETHC 082220Z AUTO 26003KT 0200 // ////// 12/08 Q1010 ///
    ETHC 082320Z AUTO VRB03KT 0200 // ////// 12/09 Q1010 ///
    ETHC 090020Z AUTO 26005KT 0200 // ////// 12/09 Q1010 ///
  • KAVX: Avalon, Catalina Airport, CA, United States [<1/4mile]
    KAVX 082051Z AUTO 26006KT M1/4SM FG VV002 14/14 A2998 RMK AO2 SLP145 60000 T01390139 50001
    KAVX 082151Z AUTO 26005KT M1/4SM FG VV001 14/14 A2997 RMK AO2 SLP142 T01390139
    KAVX 082251Z AUTO 26005KT M1/4SM FG VV002 14/14 A2996 RMK AO2 SLP138 T01390139
    KAVX 082351Z AUTO 25005KT M1/4SM FG VV002 14/14 A2994 RMK AO2 SLP132 60000 T01390139 10144 20133 58012
  • RJCK: Kushiro Airport, Japan [200meters]
    RJCK 082100Z AUTO VRB01KT 0200 R35/0200N FG OVC001 14/14 Q1017
  • RJSA: Aomori Airport, Japan [200meters]
    RJSA 082200Z 09004KT 0200 R24/0125V0300N FG VV002 15/15 Q1013
    RJSA 082213Z 07004KT 0200 R06/P2000N FG VV002 15/15 Q1013 RMK A2993
  • UAUU: Kostanay, Kazakhstan [200meters]
    UAUU 082330Z 00000MPS 0200 R32/0250 FG BKN001 15/15 Q1001
    UAUU 090000Z 12002MPS 0200 R14/0250 FG BKN001 14/14 Q1001
  • UWKD: Kazan', Russia [150meters]
    UWKD 090027Z 31003MPS 0150 PRFG NSC 12/12 Q1006 R29/70D
    UWKD 090027Z 31003MPS 0150 PRFG NSC 12/12 Q1006 R29/CLRD70
    UWKD 090033Z 30003MPS 0200 0100SW R29/0200D FG NSC 12/12 Q1006 R29/CLRD70
    UWKD 090042Z 31003MPS 0200 R29/0200N FG VV001 12/12 Q1007 R29/CLRD70
  • UWOO: Orenburg / Tsentralny, Russia [100meters]
    UWOO 082300Z 25003MPS 0150 R26/0550D FG VV001 17/17 Q1000 R26/CLRD60 NOSIG RMK QBB040 QFE740/0987
    UWOO 082320Z 25003MPS 0100 R26/0300D FG VV001 17/17 Q1001 R26/CLRD60 NOSIG RMK QBB040 QFE740/0987
  • YSDU: Dubbo, Australia [100meters]
    YSDU 082100Z AUTO 00000KT 0100 FG OVC001 05/05 Q1019 RF00.0/000.2
    YSDU 082100Z AUTO 00000KT 0100 FG OVC001 05/05 Q1019 RF00/0/000/2
0 stations reporting visibility 75 miles or greater

3 stations reporting visibility 50-74 miles

  • CYQL: Lethbridge, Alta., Canada [60miles]
    CYQL 082100Z 02018KT 60SM FEW055 BKN080 16/04 A3008 RMK CU2AC4 SLP190 DENSITY ALT 3800FT
  • CYXJ: Fort St John, B. C., Canada [60miles]
    CYXJ 082200Z 03007KT 340V050 60SM OVC035 10/03 A3026 RMK SC8 SLP270
    CYXJ 082300Z 33007KT 310V020 60SM OVC049 11/02 A3025 RMK SC8 SLP268
    CYXJ 090000Z 01009KT 60SM OVC046 12/03 A3024 RMK SC8 SLP264
  • KEDW: Edwards AFB, CA, United States [50miles]
    KEDW 082055Z 23018G21KT 50SM FEW200 35/06 A2981 RMK AO2A SLP068 T03490062 57005
    KEDW 082155Z 22018KT 50SM FEW200 35/05 A2980 RMK AO2A PK WND 23028/36 SLP064 T03480052
    KEDW 082250Z 25027G31KT 50SM FEW200 33/05 A2979 RMK AO2A SLP062
    KEDW 082255Z 24024G31KT 50SM FEW200 33/06 A2979 RMK AO2A PK WND 24032/39 SLP062 T03330057
    KEDW 082355Z 24026G32KT 50SM FEW200 32/06 A2979 RMK AO2A PK WND 23035/41 SLP063 T03180060 10357 20318 57007


0 stations reporting aurora

0 stations reporting solar/lunar eclipse


0 stations reporting inside a hurricane eye

0 stations reporting aircraft mishap

12 stations reporting bird hazard on the runway

  • SPCL: Pucallpa, Peru
    SPCL 082100Z 13003KT 9999 SCT020 32/22 Q1013 RMK BIRD HAZARD RWY 02/20 PP010
    SPCL 082200Z 09003KT 9999 FEW020 31/22 Q1012 RMK TX32.6 BIRD HAZARD RWY 02/20 PP000
    SPCL 082300Z 16003KT 9999 FEW020 30/22 Q1013 RMK BIRD HAZARD RWY 02/20 PP000
  • SPHI: Chiclayo, Peru
    SPHI 082100Z 19016KT CAVOK 22/16 Q1013 RMK BIRD HAZARD RWY 19/01 PP000
    SPHI 082200Z 19017KT CAVOK 21/16 Q1013 RMK TX24.2 BIRD HAZARD RWY 19/01 PP000
    SPHI 082300Z 18016KT CAVOK 20/16 Q1013 RMK BIRD HAZARD RWY 19/01 PP000
    SPHI 090000Z 18017KT CAVOK 19/16 Q1014 RMK BIRD HAZARD RWY 19/01 PP000
  • SPHO: Ayacucho, Peru
    SPHO 082100Z 15003KT 070V220 CAVOK 23/M14 Q1028 RMK BIRD HAZARD RWY 02/20 PP000
    SPHO 082200Z 06003KT 360V100 CAVOK 23/M15 Q1028 RMK TX23.8 BIRD HAZARD RWY 02/20 PP000
    SPHO 082300Z 26003KT 240V300 CAVOK 19/M11 Q1028 RMK BIRD HAZARD RWY 02/20 PP000
  • SPJC: Lima/J Chavez, Peru
    SPJC 082100Z 18012KT 9999 BKN013 18/14 Q1015 NOSIG RMK BIRD HAZARD RWY 16 PP000
    SPJC 082200Z 16010KT 9999 BKN013 18/14 Q1014 NOSIG RMK BIRD HAZARD RWY 16 TX18.6 PP000
  • SPJE: Shumba, Peru
    SPJE 082100Z 02008KT 9999 BKN050 31/19 Q1014 RMK TX34.4 BIRD HAZARD RWY 16/34 PP000
  • SPJL: Juliaca, Peru
    SPJL 082100Z VRB03KT CAVOK 17/M21 Q1036 RMK BIRD HAZARD RWY 12/30 PP000
    SPJL 082200Z VRB02KT CAVOK 16/M20 Q1036 RMK TX18.6 BIRD HAZARD RWY 12/30 PP000
    SPJL 082300Z 12008KT CAVOK 11/M09 Q1037 RMK BIRD HAZARD RWY 12/30 PP000
  • SPME: Tumbes, Peru
    SPME 082100Z 34007KT 9999 FEW015 27/21 Q1012 RMK BIRD HAZARD RWY 32/14 PP000
    SPME 082200Z 31005KT 9999 FEW015 27/21 Q1012 RMK BIRD HAZARD RWY 32/14 PP000
    SPME 082300Z 31004KT 9999 FEW015 SCT040 25/21 Q1012 RMK BIRD HAZARD RWY 32/14 TX 29.4 PP000
    SPME 090000Z 29003KT 9999 FEW015 SCT040 24/20 Q1012 RMK BIRD HAZARD RWY 32/14 PP000
  • SPSO: Pisco, Peru
    SPSO 082100Z 26005KT 9999 BKN013 19/16 Q1015 RMK BIRD HAZARD RWY 22/04 PP000
    SPSO 082200Z 24007KT 210V270 9999 SCT014 19/16 Q1015 RMK TX18.7 BIRD HAZARD RWY 22/04 PP000
    SPSO 082300Z 21013KT 9999 FEW017 18/15 Q1015 RMK BIRD HAZARD RWY 22/04 PP000
  • SPTU: Puerto Maldonado, Peru
    SPTU 082100Z 30004KT 270V330 CAVOK 31/20 Q1012 RMK BIRD HAZARD RWY 01/19 PP000
    SPTU 082200Z 28002KT CAVOK 30/23 Q1012 RMK TX30.2 BIRD HAZARD RWY 01/19 PP000
    SPTU 082300Z 00000KT CAVOK 26/24 Q1012 RMK BIRD HAZARD RWY 01/19 PP000
  • SPUR: Piura, Peru
    SPUR 082100Z 20010KT CAVOK 29/17 Q1012 RMK BIRD HAZARD RWY 19/01 PP000
    SPUR 082200Z 20012KT CAVOK 28/17 Q1012 RMK BIRD HAZARD RWY 19/01 TX.29.4 PP000
    SPUR 082300Z 20011KT CAVOK 26/16 Q1012 RMK BIRD HAZARD RWY 19/01 PP000
    SPUR 090000Z 19011KT CAVOK 24/16 Q1013 RMK BIRD HAZARD RWY 19/01 PP000
  • SPYL: Talara, Peru
    SPYL 082100Z /////KT CAVOK 25/18 Q1012 RMK TX28.0 BIRD HAZARD RWY 17/35 PP000
  • SPZO: Cuzco, Peru
    SPZO 082100Z VRB05KT 9999 NSC 21/M18 Q1032 NOSIG RMK BIRD HAZARD RWY 10/28 PP000
    SPZO 082130Z 02008KT 360V060 9999 NSC 20/M17 Q1032 NOSIG RMK BIRD HAZARD RWY 10/28
    SPZO 082200Z 02006KT 330V050 9999 NSC 20/M15 Q1032 NOSIG RMK TN22.6 BIRD HAZARD RWY 10/28 PP000
    SPZO 082230Z 29006KT 240V320 9999 NSC 16/M14 Q1032 NOSIG RMK BIRD HAZARD RWY 10/28
    SPZO 082300Z 34007KT 9999 NSC 16/M13 Q1033 NOSIG RMK BIRD HAZARD RWY 10/28 PP000
    SPZO 082330Z 28007KT 9999 NSC 14/M12 Q1033 NOSIG RMK BIRD HAZARD RWY 10/28
    SPZO 090000Z VRB02KT 9999 NSC 12/M10 Q1034 NOSIG RMK BIRD HAZARD RWY 10/28 PP000
    SPZO 090030Z VRB02KT 9999 NSC 10/M08 Q1034 NOSIG RMK BIRD HAZARD RWY 10/28
0 stations reporting volcanic ash

1 station reporting ice crystals/diamond dust

  • NZSP: Amundsen-Scott Stn, Antarctica
    NZSP 082350Z 10006KT 9999 IC FEW010 M64/ A2839 RMK CLN AIR 08009KT ALL WNDS GRID
0 stations reporting blowing spray

7 stations reporting dust or duststorm

  • DAOR: Bechar, Algeria
    DAOR 082100Z 22017KT 2000 BLDU FEW040 SCT100 32/// Q1013
    DAOR 082200Z 23015KT 2000 BLDU FEW040 SCT100 31/// Q1014
  • GOSP: Podor, Senegal
    GOSP 082100Z 32002KT 4000 DU NSC 34/18 Q1011
    GOSP 082200Z 32002KT 4000 DU NSC 34/18 Q1012
    GOSP 082300Z 32002KT 4000 DU NSC 33/18 Q1013
    GOSP 090000Z 32002KT 4000 DU NSC 31/09 Q1013
  • KROW: Roswell, NM, United States
    KROW 082303Z 27024G34KT 3SM BLDU CLR 34/06 A2985 RMK AO2 PK WND 28034/2259 LTG DSNT NE AND E T03440061
    KROW 082310Z 27026G34KT 2 1/2SM BLDU CLR 34/06 A2984 RMK AO2 PK WND 28034/2259 LTG DSNT NE AND E T03440061
    KROW 082312Z 27022G34KT 6SM BLDU SCT009 34/06 A2984 RMK AO2 PK WND 28034/2259 LTG DSNT NE AND E T03440056
  • MMMX: Mexico City / Licenci, Mexico
    MMMX 082140Z 14015KT 7SM SCT020TCU BKN080 27/08 A3022 NOSIG RMK 8/230 HZY CI DSNT CB ESE AND SW BLDU
    MMMX 082252Z 15015KT 6SM SCT020CB BKN080 26/07 A3020 NOSIG RMK 8/360 HZY CI BLDU
  • MMPE: Puerto Penasco International, Mexico
    MMPE 082340Z 15019KT 10SM SCT200 33/10 A2974 RMK 8/008 BLDU
  • MMSM: Santa Lucia Air Force Base, Mexico
    MMSM 082241Z 05015G27KT 6SM VCRA BKN020CB BKN080 26/09 A3022 RMK 8/360 HZY CI PCPN N NE E BLDU
    MMSM 082245Z 06013KT 6SM VCRA BKN020CB BKN080 25/09 A3023 RMK 8/360 HZY CI PCPN N NE E BLDU
  • PABI: Delta Junction/Ft Greely, AK, United States
    PABI 082053Z 11022G34KT 10SM FEW080 FEW160 OVC200 23/M02 A2996 RMK AO2 PK WND 12038/2029 SLP142 CIG THN LGT FU ALQDS BLDU VC SW-E ACSL DSNT SW T02281017 56017
    PABI 082153Z 11017G32KT 10SM FEW080 FEW160 OVC200 23/M03 A2993 RMK AO2 PK WND 10035/2105 SLP136 CIG THN LGT FU ALQDS BLDU VC SW-NW ACSL DSNT SW T02331028
    PABI 082253Z 10024G35KT 10SM FEW080 FEW160 OVC200 23/M02 A2992 RMK AO2 PK WND 11039/2220 SLP131 CIG THN LGT FU ALQDS BLDU VC SW-NW ACSL DSNT SW T02331022
    PABI 082353Z 11016G27KT 10SM FEW080 FEW160 OVC200 24/M03 A2989 RMK AO2 PK WND 11036/2257 SLP121 CIG THN BINOVC FU ALQDS BLDU DSNT SW-NW T02391028 10239 20183 56020
1 station reporting sand or sandstorm

  • GQNO: Nouakchott-Oumtounsy Airport, Mauritania
    GQNO 082100Z 33019KT 4500 BLSA NSC 25/19 Q1010 NOSIG
    GQNO 082130Z 33018KT 4500 BLSA NSC 25/20 Q1010 NOSIG
2 stations reporting well-developed dust/sand whirls

  • CYKY: Kindersley, Sask., Canada
    CYKY 082200Z CCA 32011G17KT 15SM FEW025 BKN042 BKN064 BKN069 BKN074 10/02 A3009 RMK CU2CU3SC1AC1AC1 AC TR POSS CB N CVCTV CLD EMBD SLP208
  • KIWA: Mesa, Williams Gateway Airport, AZ, United States
    KIWA 082055Z 23010G15KT 10SM PO CLR 39/04 A2981
    KIWA 082147Z COR 23005KT 10SM PO CLR 39/04 A2979
    KIWA 082224Z 02009KT 10SM PO CLR 40/03 A2977
    KIWA 082249Z 03010KT 260V120 10SM PO CLR 39/03 A2977
16 stations reporting smoke

  • AYMH: Mount Hagen, Papua New Guinea
    AYMH 082100Z VRB03KT 9999 FUHZ BKN040 16/16 Q1024
    AYMH 082100Z VRB03KT 9999 FUHZ BKN040 16/16 Q1024=
    AYMH 082200Z VRB03KT 9999 FUHZ SCT006 BKN040 17/16 Q1025
    AYMH 082200Z VRB03KT 9999 FUHZ SCT006 BKN040 17/16 Q1025=
    AYMH 082300Z VRB03KT 9999 FUHZ SCT010 BKN040 20/17 Q1025
    AYMH 082300Z VRB03KT 9999 FUHZ SCT010 BKN040 20/17 Q1025=
  • CYCQ: Chetwynd Airport, Canada
    CYCQ 082100Z 03009KT 350V070 35SM OVC045 13/02 A3024 RMK SC8 FU DIST MT W SLP258
    CYCQ 082200Z 03006KT 310V080 35SM OVC045 13/03 A3024 RMK SC8 FU DIST VLY W SLP256
    CYCQ 082300Z VRB02KT 35SM OVC045 13/03 A3023 RMK SC8 FU DIST MT W SLP253
    CYCQ 090000Z 05007KT 35SM OVC045 13/03 A3023 RMK SC8 FU DIST MT W SLP254
  • KATL: Atlanta, GA, United States
    KATL 082208Z 19007KT 10SM FEW004 SCT200 BKN250 29/12 A2995 RMK AO2 FU FEW003 T02940117 $
    KATL 082208Z COR 19007KT 10SM FEW004 SCT200 BKN250 29/12 A2995 RMK AO2 FU FEW004 VIRGA OHD-NW T02940117 $
  • KNKX: San Diego / Miramar CA, United States
    KNKX 082355Z 25007KT 10SM FU CLR 19/14 A2992 RMK AO2 SLP127 T01890139 10211 20167 56010
  • KQD3: UNKNOWN,
    KQD3 082355Z 00000KT 9000 FU CLR 32/19 A2962 RMK AO2A SLP014 WND DATA ESTMD T03210187 10334 20316
  • MMML: Mexicali Intl Arpt, Mexico
    MMML 082051Z 23003KT 10SM SKC 40/06 A2971 RMK SLP061 57017 903 ISOL CI FU NW
    MMML 082141Z 27005KT 10SM SKC 41/04 A2969 RMK FULYR NW
  • MMTG: Tuxtla Gutierrez, Chis., Mexico
    MMTG 082045Z 35009KT 3SM FU HZ SCT030TCU BKN080 BKN300 29/22 A2996 RMK SLP105 57015 936 8/271 CBS FRMG NW/NE
    MMTG 082142Z 34006KT 4SM SCT030 OVC080 30/21 A2995 RMK 8/46/ FU HZ / DSTNT CB NW N
    MMTG 082240Z 02008KT 4SM SCT030 BKN070 OVC080 29/21 A2993 RMK 8/47/ FU HZ
  • MMVA: Villahermosa, Mexico
    MMVA 082246Z 30010KT 3SM FU -RA BKN015 OVC060 30/26 A2982 RMK 8/72/ -RAB44 VRBL CONDS
    MMVA 082343Z 30008KT 3SM HZ FU BKN015 BKN060 30/26 A2985 RMK SLP107 52004 917 8/720 -RAB35 VRBL CONDS
  • MZBZ: Goldston Intl. Airport, Belize
    MZBZ 082100Z 10005KT 9999 FEW022 32/28 A2979 Q1009 NOSIG RMK DIST CBTOP-SW FU
    MZBZ 082200Z 08006KT 9999 FEW022 32/28 A2979 Q1009 NOSIG RMK DIST CBTOP-SW FU
    MZBZ 082300Z 10006KT 9999 FEW022 31/28 A2979 Q1008 NOSIG RMK FU-NW/SE
    MZBZ 090000Z 08006KT 9999 FEW020 31/28 A2980 Q1009 NOSIG RMK FU
  • OPFA: Faisalabad, Pakistan
    OPFA 082055Z 00000KT 4000 FU NSC 28/19 Q1002 NOSIG
    OPFA 082155Z 00000KT 4000 FU NSC 27/19 Q1002 NOSIG
    OPFA 082255Z 00000KT 4000 FU NSC 27/19 Q1002 NOSIG
    OPFA 082355Z 23004KT 4000 FU NSC 27/19 Q1002 NOSIG
  • OPMT: Multan, Pakistan
    OPMT 082100Z 00000KT 4000 FU NSC 29/18 Q1000 NOSIG
    OPMT 082200Z 00000KT 4000 FU FEW100 29/18 Q1000 NOSIG
    OPMT 090005Z 00000KT 4000 FU SCT040 28/20 Q1002 NOSIG
  • OPST: Sambrial, Pakistan
    OPST 090000Z 00000KT 4000 FU NSC 25/16 Q1002 NOSIG RH58
  • PABI: Delta Junction/Ft Greely, AK, United States
    PABI 082053Z 11022G34KT 10SM FEW080 FEW160 OVC200 23/M02 A2996 RMK AO2 PK WND 12038/2029 SLP142 CIG THN LGT FU ALQDS BLDU VC SW-E ACSL DSNT SW T02281017 56017
    PABI 082153Z 11017G32KT 10SM FEW080 FEW160 OVC200 23/M03 A2993 RMK AO2 PK WND 10035/2105 SLP136 CIG THN LGT FU ALQDS BLDU VC SW-NW ACSL DSNT SW T02331028
    PABI 082253Z 10024G35KT 10SM FEW080 FEW160 OVC200 23/M02 A2992 RMK AO2 PK WND 11039/2220 SLP131 CIG THN LGT FU ALQDS BLDU VC SW-NW ACSL DSNT SW T02331022
    PABI 082353Z 11016G27KT 10SM FEW080 FEW160 OVC200 24/M03 A2989 RMK AO2 PK WND 11036/2257 SLP121 CIG THN BINOVC FU ALQDS BLDU DSNT SW-NW T02391028 10239 20183 56020
  • PAFA: Fairbanks, Fairbanks Intl Arpt, AK, United States
    PAFA 082353Z 08010G20KT 10SM FEW080 SCT220 27/03 A2984 RMK AO2 SLP107 FU DSNT SE T02720028 10272 20211 58023 $
  • PAOR: Northway, Northway Airport, AK, United States
    PAOR 082253Z 08013G19KT 2SM HZ FU SCT120 24/M02 A2993
    PAOR 082253Z 08013G19KT 2SM HZ FU SCT120 24/M02 A2993 RMK AO2 PK WND 10026/2232 SLP132 FU ALQDS T02391022 PNO $
    PAOR 082353Z 11016G21KT 2SM HZ FU BKN120 24/M02 A2990
    PAOR 082353Z 11016G21KT 2SM HZ FU BKN120 24/M02 A2990 RMK AO2 SLP125 6//// T02441022 10244 20206 58022 PNO $
  • VAAH: Ahmadabad, India
    VAAH 082100Z 28003KT 4000 FU NSC 33/21 Q1003 NOSIG
    VAAH 082130Z 27004KT 4000 FU NSC 32/21 Q1003 NOSIG
    VAAH 082200Z 01006KT 4000 FU NSC 31/19 Q1002 NOSIG
    VAAH 082230Z 32003KT 4000 FU NSC 31/20 Q1002 NOSIG
    VAAH 082300Z 30003KT 4000 FU NSC 31/20 Q1002 NOSIG
    VAAH 082330Z 29003KT 4000 FU NSC 31/20 Q1002 NOSIG
    VAAH 090000Z 24006KT 4000 FU NSC 31/23 Q1002 NOSIG
    VAAH 090030Z 25009KT 4000 FU NSC 31/23 Q1002 NOSIG


Stations falling into 5 or more extreme categories

Stations falling into 4 extreme categories

  • KOPF: Miami, Opa Locka Airport, FL, United States
        Dewpoint, Precipitation Type/Intensity, Hourly Precip Total, Thunderstorm
Stations falling into 3 extreme categories

  • KFMM: Fort Morgan, CO, United States
        Wind, Precipitation Type/Intensity, Hourly Precip Total
  • WIBB: Pakanbaru / Simpangtiga, Indonesia
        Dewpoint, Precipitation Type/Intensity, Thunderstorm
Stations falling into 2 extreme categories

  • CYRQ: Trois Rivieres, Que, Canada
        Precipitation Type/Intensity, Thunderstorm
  • KAKO: Akron, Akron-Washington County Airport, CO, United States
        Hourly Precip Total, Thunderstorm
  • KBJC: Broomfield / Jeffco, CO, United States
        Thunderstorm, Visibility
  • KGYR: Goodyear Municipal, AZ, United States
        Temperature, Visibility
  • KIWA: Mesa, Williams Gateway Airport, AZ, United States
        Temperature, Dust/Sand Whirls
  • KLHX: La Junta, La Junta Municipal Airport, CO, United States
        Wind, Thunderstorm
  • KLIC: Limon, Limon Municipal Airport, CO, United States
        Wind, Thunderstorm
  • KMWN: Mount Washington, NH, United States
        Wind, Visibility
  • KROW: Roswell, NM, United States
        Wind, Dust/Duststorm
  • LFBM: Mont-De-Marsan, France
        Precipitation Type/Intensity, Thunderstorm
  • LFBZ: Biarritz, France
        Precipitation Type/Intensity, Thunderstorm
  • MHLC: La Ceiba Airport, Honduras
        Dewpoint, Thunderstorm
  • MKJS: Montego Bay / Sangster, Jamaica
        Dewpoint, Thunderstorm
  • MMML: Mexicali Intl Arpt, Mexico
        Temperature, Smoke
  • MMMX: Mexico City / Licenci, Mexico
        Precipitation Type/Intensity, Dust/Duststorm
  • MMVA: Villahermosa, Mexico
        Dewpoint, Smoke
  • MRLB: Liberia, Costa Rica
        Dewpoint, Thunderstorm
  • MSLP: El Salvador Intl. Airport / Comalapa, El Salvador
        Dewpoint, Thunderstorm
  • MZBZ: Goldston Intl. Airport, Belize
        Dewpoint, Smoke
  • NZCM: Williams Field, Antarctica
        Wind, Pressure
  • NZSP: Amundsen-Scott Stn, Antarctica
        Temperature, Ice Crystals/Diamond Dust
  • PABI: Delta Junction/Ft Greely, AK, United States
        Dust/Duststorm, Smoke
  • PKWA: Kwajalein, Marshall Islands
        Dewpoint, Wind
  • RJFY: Kanoya Ab, Japan
        Precipitation Type/Intensity, Thunderstorm
  • ROAH: Naha Airport, Japan
        Dewpoint, Thunderstorm
  • ROMY: Miyakojima, Japan
        Dewpoint, Thunderstorm
  • RORS: Shimoji-Shima Island, Japan
        Dewpoint, Thunderstorm
  • SPJL: Juliaca, Peru
        Pressure, Bird Hazard
  • SPQT: Iquitos, Peru
        Dewpoint, Thunderstorm
  • VABB: Bombay / Santacruz, India
        Dewpoint, Thunderstorm
  • VHHH: Hong Kong Inter-National Airport, Hong Kong
        Dewpoint, Precipitation Type/Intensity
  • VVCI: Cat Bi, Viet Nam
        Dewpoint, Thunderstorm
  • VVCT: Can Tho, Viet Nam
        Dewpoint, Thunderstorm
  • VVVD: Vo Dat, Vietnam
        Dewpoint, Thunderstorm
  • WIMM: Medan / Polonia, Indonesia
        Dewpoint, Thunderstorm


98 unidentified stations (out of a total of 165 documented unknown stations)

  • ENUN (OLD)
  • EQYE (OLD)
  • EQYF (OLD)
  • EQYT (OLD)
  • EQYV (OLD)
  • HESX (NEW)
  • HKGO (OLD)
  • K0D8 (NEW)
  • K0W3 (NEW)
  • K10U (NEW)
  • K1B9 (NEW)
  • K1D8 (NEW)
  • K1K8 (NEW)
  • K2M8 (NEW)
  • K2R2 (NEW)
  • K3K7 (NEW)
  • K3W7 (NEW)
  • K42A (NEW)
  • K49B (NEW)
  • K4B8 (NEW)
  • K60R (NEW)
  • K8V7 (NEW)
  • K9Y1 (NEW)
  • KACZ (NEW)
  • KANR (NEW)
  • KBFA (NEW)
  • KC08 (NEW)
  • KCPP (NEW)
  • KCSB (NEW)
  • KD09 (NEW)
  • KDRP (NEW)
  • KE01 (NEW)
  • KE57 (NEW)
  • KE77 (NEW)
  • KETO (NEW)
  • KF95 (NEW)
  • KFOM (NEW)
  • KGDK (NEW)
  • KHVC (NEW)
  • KI40 (NEW)
  • KI95 (NEW)
  • KK83 (NEW)
  • KMCZ (NEW)
  • KMKQ (NEW)
  • KN79 (NEW)
  • KOYE (NEW)
  • KQA8 (OLD)
  • KQAL (OLD)
  • KQB3 (OLD)
  • KQCG (OLD)
  • KQD3 (OLD)
  • KQEK (OLD)
  • KQGE (OLD)
  • KQHB (OLD)
  • KQHC (OLD)
  • KQJQ (NEW)
  • KQNE (NEW)
  • KQOA (OLD)
  • KQOO (NEW)
  • KQRD (OLD)
  • KQRP (NEW)
  • KQX2 (OLD)
  • KQXH (OLD)
  • KQYI (NEW)
  • KS12 (NEW)
  • KSBX (NEW)
  • KTQV (OLD)
  • KU64 (NEW)
  • KUWL (NEW)
  • KVGN (NEW)
  • KXIF (OLD)
  • LETU (OLD)
  • LIRY (NEW)
  • LRBV (NEW)
  • LTFO (OLD)
  • MGMT (OLD)
  • MGTU (OLD)
  • MMGA (NEW)
  • NFVB (NEW)
  • NZQN (NEW)
  • OEAR (OLD)
  • OEMN (NEW)
  • OKKK (NEW)
  • PACX (NEW)
  • PANU (NEW)
  • PAPE (NEW)
  • PFKO (NEW)
  • PFTO (NEW)
  • PFZK (NEW)
  • UBBZ (NEW)
  • VAJM (NEW)
  • VDSA (NEW)
  • VEAB (NEW)
  • VISP (NEW)
  • VOGA (NEW)
  • VTSY (NEW)
  • WILL (NEW)
  • YBSU (NEW)